METAR Data
IDs: Format: Raw Decoded Include TAF

Data at: 2137 UTC 02 Aug 2021

KWHP 022055Z 14005KT 10SM SKC 37/00 A3002